Time;durP1;ratioP1;P1;durP2;ratioP2;P2;SDS_P1;SDS_P2;PMS_P1;PMS_P2;Temp;Humidity;BMP_temperature;BMP_pressure;BME280_temperature;BME280_humidity;BME280_pressure;Samples;Min_cycle;Max_cycle;Signal;HPM_P1;HPM_P2
2022/05/23 00:03:00;;;;;;;1.77;1.63;;;;;;;;;;10463377;28;20214;-74
2022/05/23 00:08:03;;;;;;;1.70;1.60;;;;;;;;;;10422290;28;20232;-75
2022/05/23 00:13:04;;;;;;;4.50;1.98;;;;;;;;;;10432920;28;20797;-75
2022/05/23 00:18:05;;;;;;;1.95;1.85;;;;;;;;;;10430979;28;20202;-74
2022/05/23 00:23:07;;;;;;;2.38;2.28;;;;;;;;;;10445355;28;20202;-74
2022/05/23 00:28:08;;;;;;;1.92;1.70;;;;;;;;;;10448140;28;20214;-74
2022/05/23 00:38:29;;;;;;;1.75;1.65;;;;;;;;;;10435185;28;20269;-74
2022/05/23 00:43:30;;;;;;;1.50;1.40;;;;;;;;;;10455129;28;20194;-74
2022/05/23 00:48:31;;;;;;;1.45;1.30;;;;;;;;;;10466968;28;20212;-74
2022/05/23 00:53:34;;;;;;;1.58;1.45;;;;;;;;;;10427956;28;20241;-75
2022/05/23 00:58:39;;;;;;;2.72;1.40;;;;;;;;;;10448884;28;20240;-74
2022/05/23 01:03:41;;;;;;;4.10;1.42;;;;;;;;;;10420208;28;20313;-74
2022/05/23 01:08:42;;;;;;;2.20;1.20;;;;;;;;;;10436652;28;20800;-74
2022/05/23 01:13:44;;;;;;;1.85;1.00;;;;;;;;;;10473327;28;20677;-74
2022/05/23 01:18:45;;;;;;;3.22;1.10;;;;;;;;;;10466376;28;20800;-74
2022/05/23 01:23:50;;;;;;;2.58;1.20;;;;;;;;;;10469285;28;20198;-74
2022/05/23 01:28:56;;;;;;;1.35;1.25;;;;;;;;;;10426735;28;20202;-74
2022/05/23 01:34:24;;;;;;;1.05;1.05;;;;;;;;;;10467604;28;20218;-75
2022/05/23 01:39:39;;;;;;;1.38;1.25;;;;;;;;;;10434581;28;20202;-74
2022/05/23 01:44:40;;;;;;;2.58;1.65;;;;;;;;;;10467721;28;20182;-74
2022/05/23 01:49:47;;;;;;;1.45;1.30;;;;;;;;;;10418221;28;20214;-74
2022/05/23 01:55:07;;;;;;;6.95;1.75;;;;;;;;;;10417972;28;20218;-75
2022/05/23 02:05:28;;;;;;;1.15;1.00;;;;;;;;;;10436584;28;20233;-74
2022/05/23 02:10:30;;;;;;;1.40;1.30;;;;;;;;;;10464962;28;20228;-74
2022/05/23 02:15:33;;;;;;;1.98;1.35;;;;;;;;;;10428330;28;20246;-73
2022/05/23 02:21:03;;;;;;;8.15;1.52;;;;;;;;;;10451298;28;20233;-74
2022/05/23 02:26:04;;;;;;;2.05;1.60;;;;;;;;;;10432550;28;20312;-75
2022/05/23 02:31:16;;;;;;;1.15;1.15;;;;;;;;;;10432881;28;21018;-74
2022/05/23 02:36:28;;;;;;;1.88;1.77;;;;;;;;;;10442118;28;20194;-74
2022/05/23 02:41:29;;;;;;;2.00;1.70;;;;;;;;;;10437136;28;20210;-75
2022/05/23 02:46:30;;;;;;;2.60;2.45;;;;;;;;;;10449303;28;20706;-73
2022/05/23 02:51:38;;;;;;;2.35;2.25;;;;;;;;;;10433433;28;20198;-73
2022/05/23 02:56:42;;;;;;;2.90;2.72;;;;;;;;;;10447121;28;20206;-72
2022/05/23 03:07:14;;;;;;;4.10;3.75;;;;;;;;;;10444666;28;20222;-73
2022/05/23 03:12:18;;;;;;;3.95;3.50;;;;;;;;;;10446495;28;20194;-72
2022/05/23 03:17:19;;;;;;;2.95;2.83;;;;;;;;;;10436079;28;20256;-73
2022/05/23 03:27:43;;;;;;;2.50;2.40;;;;;;;;;;10446608;28;20217;-72
2022/05/23 03:32:52;;;;;;;2.85;2.75;;;;;;;;;;10441366;28;20596;-72
2022/05/23 03:37:54;;;;;;;2.30;2.30;;;;;;;;;;10442640;28;20221;-73
2022/05/23 03:42:56;;;;;;;2.83;2.70;;;;;;;;;;10426336;28;20574;-73
2022/05/23 03:47:57;;;;;;;2.78;2.67;;;;;;;;;;10441230;28;20293;-73
2022/05/23 03:52:58;;;;;;;2.95;2.75;;;;;;;;;;10428993;28;20616;-72
2022/05/23 03:58:02;;;;;;;2.90;2.80;;;;;;;;;;10406454;28;20210;-72
2022/05/23 04:03:03;;;;;;;5.72;4.78;;;;;;;;;;10443514;28;20272;-73
2022/05/23 04:08:05;;;;;;;3.60;3.40;;;;;;;;;;10445314;28;20258;-72
2022/05/23 04:13:12;;;;;;;5.35;3.45;;;;;;;;;;10428050;28;20728;-72
2022/05/23 04:18:13;;;;;;;3.97;3.78;;;;;;;;;;10444767;28;20293;-73
2022/05/23 04:23:14;;;;;;;4.03;3.72;;;;;;;;;;10438074;28;20966;-73
2022/05/23 04:28:16;;;;;;;5.70;3.83;;;;;;;;;;10420169;28;20202;-73
2022/05/23 04:38:38;;;;;;;4.05;2.83;;;;;;;;;;10446003;28;20210;-73
2022/05/23 04:43:40;;;;;;;3.95;2.92;;;;;;;;;;10451126;28;20205;-71
2022/05/23 04:54:02;;;;;;;2.22;2.03;;;;;;;;;;10453564;28;20855;-72
2022/05/23 04:59:03;;;;;;;2.63;2.38;;;;;;;;;;10437777;28;20203;-73
2022/05/23 05:04:04;;;;;;;3.10;1.73;;;;;;;;;;10418121;28;20781;-72
2022/05/23 05:09:12;;;;;;;2.95;2.00;;;;;;;;;;10450914;28;20210;-73
2022/05/23 05:14:13;;;;;;;2.65;1.80;;;;;;;;;;10471002;28;20631;-72
2022/05/23 05:19:21;;;;;;;1.95;1.85;;;;;;;;;;10452944;28;20198;-74
2022/05/23 05:24:29;;;;;;;2.33;2.08;;;;;;;;;;10452943;28;20299;-72
2022/05/23 05:29:46;;;;;;;4.32;2.30;;;;;;;;;;10452521;28;20201;-72
2022/05/23 05:34:57;;;;;;;2.10;2.00;;;;;;;;;;10434784;28;20210;-74
2022/05/23 05:40:03;;;;;;;2.15;2.00;;;;;;;;;;10451995;28;20568;-72
2022/05/23 05:45:07;;;;;;;2.60;1.75;;;;;;;;;;10449945;28;20191;-73
2022/05/23 05:50:11;;;;;;;1.67;1.58;;;;;;;;;;10433131;28;20216;-73
2022/05/23 05:55:28;;;;;;;1.73;1.63;;;;;;;;;;10452224;28;20194;-73
2022/05/23 06:00:30;;;;;;;1.70;1.60;;;;;;;;;;10449061;28;20194;-71
2022/05/23 06:11:23;;;;;;;2.83;1.80;;;;;;;;;;10450103;28;20226;-72
2022/05/23 06:16:39;;;;;;;2.20;2.00;;;;;;;;;;10446811;28;20293;-72
2022/05/23 06:21:49;;;;;;;2.95;2.00;;;;;;;;;;10436139;28;20194;-72
2022/05/23 06:26:50;;;;;;;2.80;1.63;;;;;;;;;;10416376;28;20898;-73
2022/05/23 06:32:12;;;;;;;6.78;2.17;;;;;;;;;;10438062;28;20213;-72
2022/05/23 06:37:13;;;;;;;1.77;1.65;;;;;;;;;;10433717;28;20910;-73
2022/05/23 06:42:15;;;;;;;1.80;1.70;;;;;;;;;;10430600;28;20822;-72
2022/05/23 06:47:34;;;;;;;1.70;1.58;;;;;;;;;;10460312;28;20210;-72
2022/05/23 06:52:58;;;;;;;2.53;1.80;;;;;;;;;;10453113;28;20204;-73
2022/05/23 06:58:11;;;;;;;2.20;1.50;;;;;;;;;;10432558;28;20252;-73
2022/05/23 07:03:12;;;;;;;2.45;1.77;;;;;;;;;;10411529;28;20900;-72
2022/05/23 07:13:39;;;;;;;1.35;1.35;;;;;;;;;;10464329;28;20197;-73
2022/05/23 07:18:41;;;;;;;3.83;1.80;;;;;;;;;;10447936;28;20831;-72
2022/05/23 07:23:51;;;;;;;1.30;1.23;;;;;;;;;;10423433;28;20234;-72
2022/05/23 07:29:09;;;;;;;2.25;1.90;;;;;;;;;;10418484;28;20216;-73
2022/05/23 07:34:10;;;;;;;1.45;1.35;;;;;;;;;;10425936;28;20272;-73
2022/05/23 07:39:12;;;;;;;2.78;1.80;;;;;;;;;;10417031;28;20198;-73
2022/05/23 07:44:17;;;;;;;4.47;1.70;;;;;;;;;;10447208;28;20198;-72
2022/05/23 07:49:19;;;;;;;1.23;1.13;;;;;;;;;;10428262;28;20206;-73
2022/05/23 08:05:33;;;;;;;2.60;1.45;;;;;;;;;;10442444;28;20226;-73
2022/05/23 08:10:34;;;;;;;2.40;0.98;;;;;;;;;;10445439;28;20195;-73
2022/05/23 08:15:39;;;;;;;1.77;1.20;;;;;;;;;;10416137;28;21058;-71
2022/05/23 08:20:46;;;;;;;2.70;1.08;;;;;;;;;;10426779;28;20202;-72
2022/05/23 08:25:47;;;;;;;5.45;1.05;;;;;;;;;;10444477;28;20292;-72
2022/05/23 08:30:48;;;;;;;2.15;1.05;;;;;;;;;;10446097;28;20234;-73
2022/05/23 08:36:03;;;;;;;1.65;1.10;;;;;;;;;;10431970;28;20206;-71
2022/05/23 08:41:17;;;;;;;3.65;1.10;;;;;;;;;;10429332;28;20985;-73
2022/05/23 08:46:33;;;;;;;1.20;1.10;;;;;;;;;;10414227;28;20240;-73
2022/05/23 08:51:45;;;;;;;1.08;1.00;;;;;;;;;;10403371;28;20214;-72
2022/05/23 08:56:53;;;;;;;1.13;1.10;;;;;;;;;;10441072;28;20197;-72
2022/05/23 09:02:00;;;;;;;3.03;1.00;;;;;;;;;;10451955;28;20974;-76
2022/05/23 09:07:03;;;;;;;1.20;0.98;;;;;;;;;;10430012;28;20210;-76
2022/05/23 09:12:14;;;;;;;1.80;0.90;;;;;;;;;;10471121;28;20631;-76
2022/05/23 09:17:22;;;;;;;0.90;0.90;;;;;;;;;;10412619;28;20228;-77
2022/05/23 09:22:32;;;;;;;1.40;0.90;;;;;;;;;;10403716;28;20730;-76
2022/05/23 09:27:38;;;;;;;2.05;0.80;;;;;;;;;;10416805;28;20217;-77
2022/05/23 09:32:44;;;;;;;1.13;0.95;;;;;;;;;;10421890;28;20302;-75
2022/05/23 09:37:47;;;;;;;1.00;0.88;;;;;;;;;;10452977;28;20235;-75
2022/05/23 09:48:24;;;;;;;1.17;0.90;;;;;;;;;;10431438;28;20218;-77
2022/05/23 09:53:30;;;;;;;1.60;0.80;;;;;;;;;;10454687;28;20721;-77
2022/05/23 09:58:35;;;;;;;4.85;0.90;;;;;;;;;;10450177;28;20210;-77
2022/05/23 10:03:37;;;;;;;3.67;0.70;;;;;;;;;;10430200;28;20242;-78
2022/05/23 10:08:48;;;;;;;2.85;1.00;;;;;;;;;;10424635;28;20732;-77
2022/05/23 10:14:04;;;;;;;3.20;1.40;;;;;;;;;;10434858;28;20205;-77
2022/05/23 10:19:06;;;;;;;1.92;1.05;;;;;;;;;;10471871;28;20206;-77
2022/05/23 10:24:12;;;;;;;2.45;0.80;;;;;;;;;;10472060;28;20948;-76
2022/05/23 10:29:16;;;;;;;1.15;0.90;;;;;;;;;;10468331;28;20195;-76
2022/05/23 10:34:31;;;;;;;3.30;0.88;;;;;;;;;;10436642;28;20967;-77
2022/05/23 10:45:13;;;;;;;0.88;0.70;;;;;;;;;;10450370;28;20202;-77
2022/05/23 10:50:20;;;;;;;1.15;1.13;;;;;;;;;;10444832;28;20194;-76
2022/05/23 10:55:34;;;;;;;1.75;0.85;;;;;;;;;;10469873;28;20206;-77
2022/05/23 11:00:49;;;;;;;0.80;0.80;;;;;;;;;;10450001;28;20220;-77
2022/05/23 11:05:59;;;;;;;1.33;1.00;;;;;;;;;;10463718;28;20276;-77
2022/05/23 11:11:18;;;;;;;2.35;0.98;;;;;;;;;;10453890;28;20228;-77
2022/05/23 11:16:23;;;;;;;1.35;1.08;;;;;;;;;;10431737;28;20218;-76
2022/05/23 11:21:41;;;;;;;1.73;1.00;;;;;;;;;;10431975;28;20229;-77
2022/05/23 11:26:47;;;;;;;0.93;0.93;;;;;;;;;;10444278;28;21345;-77
2022/05/23 11:42:42;;;;;;;1.05;1.05;;;;;;;;;;10467039;28;20674;-77
2022/05/23 11:47:48;;;;;;;1.65;0.90;;;;;;;;;;10464510;28;20347;-77
2022/05/23 11:53:04;;;;;;;1.48;1.00;;;;;;;;;;10468836;28;20198;-77
2022/05/23 11:58:17;;;;;;;0.80;0.80;;;;;;;;;;10464587;28;20202;-77
2022/05/23 12:03:19;;;;;;;1.48;0.88;;;;;;;;;;10425387;28;20702;-78
2022/05/23 12:08:27;;;;;;;1.20;1.10;;;;;;;;;;10454142;28;20270;-77
2022/05/23 12:13:34;;;;;;;1.00;0.90;;;;;;;;;;10453015;28;20202;-78
2022/05/23 12:18:37;;;;;;;1.30;0.80;;;;;;;;;;10446023;28;20273;-78
2022/05/23 12:23:42;;;;;;;2.90;0.98;;;;;;;;;;10444760;28;20251;-76
2022/05/23 12:28:44;;;;;;;3.00;0.90;;;;;;;;;;10476099;28;20198;-79
2022/05/23 12:33:48;;;;;;;5.25;1.08;;;;;;;;;;10455223;28;20622;-77
2022/05/23 12:38:56;;;;;;;0.93;0.90;;;;;;;;;;10428108;28;20676;-78
2022/05/23 12:43:57;;;;;;;0.80;0.80;;;;;;;;;;10451942;28;20202;-80
2022/05/23 12:49:04;;;;;;;0.82;0.70;;;;;;;;;;10444489;28;20207;-77
2022/05/23 12:54:05;;;;;;;1.23;0.95;;;;;;;;;;10450628;28;20244;-78
2022/05/23 12:59:12;;;;;;;2.03;1.05;;;;;;;;;;10451702;28;20206;-78
2022/05/23 13:04:21;;;;;;;1.67;0.68;;;;;;;;;;10459575;28;20237;-77
2022/05/23 13:09:27;;;;;;;1.70;0.90;;;;;;;;;;10455376;28;20920;-77
2022/05/23 13:14:45;;;;;;;1.58;0.88;;;;;;;;;;10421837;28;20274;-77
2022/05/23 13:25:09;;;;;;;2.95;0.90;;;;;;;;;;10454221;28;20260;-77
2022/05/23 13:30:31;;;;;;;1.25;1.20;;;;;;;;;;10455067;28;20833;-77
2022/05/23 13:35:32;;;;;;;2.20;0.80;;;;;;;;;;10455509;28;20223;-77
2022/05/23 13:40:33;;;;;;;0.90;0.90;;;;;;;;;;10438842;28;20206;-77
2022/05/23 13:45:35;;;;;;;2.72;0.85;;;;;;;;;;10475906;28;20772;-77
2022/05/23 13:50:39;;;;;;;2.50;0.80;;;;;;;;;;10469556;28;20209;-77
2022/05/23 13:55:49;;;;;;;1.50;0.88;;;;;;;;;;10466981;28;20298;-77
2022/05/23 14:00:53;;;;;;;2.00;0.93;;;;;;;;;;10451229;28;20276;-77
2022/05/23 14:05:55;;;;;;;5.18;1.10;;;;;;;;;;10443279;28;20575;-77
2022/05/23 14:10:56;;;;;;;0.88;0.68;;;;;;;;;;10435661;28;20207;-77
2022/05/23 14:15:58;;;;;;;2.35;0.90;;;;;;;;;;10428931;28;20230;-77
2022/05/23 14:20:59;;;;;;;4.05;1.15;;;;;;;;;;10437145;28;20277;-77
2022/05/23 14:26:00;;;;;;;5.70;1.10;;;;;;;;;;10417837;28;20215;-77
2022/05/23 14:31:03;;;;;;;3.75;1.10;;;;;;;;;;10398717;28;20698;-77
2022/05/23 14:36:10;;;;;;;2.00;1.08;;;;;;;;;;10417775;28;20207;-76
2022/05/23 14:41:50;;;;;;;1.92;1.08;;;;;;;;;;10433689;28;20248;-76
2022/05/23 14:47:07;;;;;;;2.10;1.10;;;;;;;;;;10262069;28;20849;-75
2022/05/23 14:52:19;;;;;;;1.27;1.15;;;;;;;;;;10264397;28;20605;-76
2022/05/23 15:00:37;;;;;;;2.90;1.10;;;;;;;;;;10300123;28;20212;-77
2022/05/23 15:02:46;;;;;;;0.85;0.80;;;;;;;;;;10287900;28;20323;-76
2022/05/23 15:07:57;;;;;;;1.23;1.20;;;;;;;;;;10278373;28;20225;-76
2022/05/23 15:12:58;;;;;;;0.90;0.80;;;;;;;;;;10304078;28;20939;-77
2022/05/23 15:17:59;;;;;;;3.80;1.65;;;;;;;;;;10366427;28;20822;-76
2022/05/23 15:23:00;;;;;;;4.18;1.30;;;;;;;;;;10373207;28;20214;-76
2022/05/23 15:28:03;;;;;;;2.25;1.33;;;;;;;;;;10389585;28;20779;-75
2022/05/23 15:33:04;;;;;;;1.30;1.20;;;;;;;;;;10386681;28;20218;-76
2022/05/23 15:38:05;;;;;;;1.02;0.98;;;;;;;;;;10381343;28;20207;-76
2022/05/23 15:43:09;;;;;;;1.48;0.98;;;;;;;;;;10391981;28;20203;-75
2022/05/23 15:48:10;;;;;;;1.60;1.05;;;;;;;;;;10373418;28;20211;-76
2022/05/23 15:53:11;;;;;;;1.13;1.13;;;;;;;;;;10391703;28;20690;-77
2022/05/23 15:58:13;;;;;;;3.17;1.60;;;;;;;;;;10389836;28;20203;-76
2022/05/23 16:03:14;;;;;;;1.95;1.85;;;;;;;;;;10387947;28;20253;-75
2022/05/23 16:08:15;;;;;;;5.60;1.15;;;;;;;;;;10473625;28;20253;-75
2022/05/23 16:13:18;;;;;;;7.80;1.48;;;;;;;;;;10443968;28;20309;-77
2022/05/23 16:18:19;;;;;;;3.45;1.20;;;;;;;;;;10455027;28;20225;-76
2022/05/23 16:23:20;;;;;;;1.05;1.00;;;;;;;;;;10414401;28;20678;-76
2022/05/23 16:28:22;;;;;;;1.73;1.30;;;;;;;;;;10419955;28;20396;-75
2022/05/23 16:38:43;;;;;;;2.72;1.40;;;;;;;;;;10474481;28;21073;-75
2022/05/23 16:43:45;;;;;;;1.40;1.30;;;;;;;;;;10441789;28;20221;-74
2022/05/23 16:48:46;;;;;;;2.50;1.30;;;;;;;;;;10465327;28;20206;-77
2022/05/23 16:53:47;;;;;;;1.40;1.30;;;;;;;;;;10439593;28;20698;-77
2022/05/23 16:58:49;;;;;;;2.28;1.48;;;;;;;;;;10441113;28;20203;-77
2022/05/23 17:03:50;;;;;;;2.95;1.52;;;;;;;;;;10457589;28;20235;-76
2022/05/23 17:08:51;;;;;;;1.60;1.50;;;;;;;;;;10435909;28;20201;-77
2022/05/23 17:13:52;;;;;;;5.45;1.50;;;;;;;;;;10464847;28;20194;-76
2022/05/23 17:18:53;;;;;;;1.58;1.38;;;;;;;;;;10469388;28;20851;-76
2022/05/23 17:23:54;;;;;;;4.32;1.27;;;;;;;;;;10455432;28;20202;-77
2022/05/23 17:28:57;;;;;;;1.77;1.48;;;;;;;;;;10436236;28;20208;-76
2022/05/23 17:33:58;;;;;;;5.30;1.17;;;;;;;;;;10454196;28;20221;-77
2022/05/23 17:38:59;;;;;;;1.30;1.13;;;;;;;;;;10438217;28;20233;-77
2022/05/23 17:44:00;;;;;;;3.40;1.35;;;;;;;;;;10472326;28;20202;-76
2022/05/23 17:49:01;;;;;;;1.30;1.05;;;;;;;;;;10454244;28;20241;-76
2022/05/23 17:54:02;;;;;;;1.23;1.10;;;;;;;;;;10470647;28;20804;-76
2022/05/23 17:59:04;;;;;;;1.15;1.15;;;;;;;;;;10471084;28;20214;-76
2022/05/23 18:04:05;;;;;;;1.45;1.02;;;;;;;;;;10451194;28;20230;-75
2022/05/23 18:09:06;;;;;;;1.52;1.40;;;;;;;;;;10467678;28;20225;-77
2022/05/23 18:19:27;;;;;;;1.20;1.15;;;;;;;;;;10452273;28;20205;-76
2022/05/23 18:24:29;;;;;;;1.20;1.20;;;;;;;;;;10469508;28;20699;-76
2022/05/23 18:29:30;;;;;;;3.42;1.25;;;;;;;;;;10425128;28;20579;-75
2022/05/23 18:34:37;;;;;;;2.40;1.27;;;;;;;;;;10461996;28;20222;-77
2022/05/23 18:39:39;;;;;;;1.33;1.10;;;;;;;;;;10430401;28;20226;-76
2022/05/23 18:44:41;;;;;;;1.95;1.67;;;;;;;;;;10445461;28;20210;-77
2022/05/23 18:49:45;;;;;;;3.35;1.40;;;;;;;;;;10415111;28;20236;-77
2022/05/23 18:54:46;;;;;;;1.55;1.42;;;;;;;;;;10444082;28;20260;-77
2022/05/23 18:59:51;;;;;;;1.95;1.60;;;;;;;;;;10442638;28;20206;-77
2022/05/23 19:04:52;;;;;;;2.45;1.40;;;;;;;;;;10447124;28;20320;-73
2022/05/23 19:09:54;;;;;;;1.58;1.48;;;;;;;;;;10467178;28;20320;-73
2022/05/23 19:14:55;;;;;;;2.17;1.58;;;;;;;;;;10459876;28;20359;-73
2022/05/23 19:19:56;;;;;;;1.45;1.45;;;;;;;;;;10432325;28;20265;-72
2022/05/23 19:24:57;;;;;;;1.77;1.73;;;;;;;;;;10432543;28;20198;-73
2022/05/23 19:29:58;;;;;;;8.95;1.58;;;;;;;;;;10449658;28;20220;-73
2022/05/23 19:34:59;;;;;;;1.85;1.48;;;;;;;;;;10465757;28;20226;-73
2022/05/23 19:40:03;;;;;;;1.88;1.77;;;;;;;;;;10465607;28;20210;-73
2022/05/23 19:45:05;;;;;;;2.33;1.77;;;;;;;;;;10468583;28;20204;-74
2022/05/23 19:50:08;;;;;;;2.70;2.08;;;;;;;;;;10448868;28;20199;-73
2022/05/23 19:55:10;;;;;;;2.53;2.17;;;;;;;;;;10415609;28;20243;-74
2022/05/23 20:00:12;;;;;;;2.00;2.00;;;;;;;;;;10432394;28;20222;-74
2022/05/23 20:10:40;;;;;;;2.22;2.08;;;;;;;;;;10430355;28;20243;-72
2022/05/23 20:15:41;;;;;;;2.83;1.80;;;;;;;;;;10445979;28;20209;-71
2022/05/23 20:20:43;;;;;;;2.22;2.00;;;;;;;;;;10446248;28;20209;-72
2022/05/23 20:25:46;;;;;;;4.18;2.45;;;;;;;;;;10426163;28;21012;-72
2022/05/23 20:30:47;;;;;;;4.03;1.85;;;;;;;;;;10433987;28;20222;-72
2022/05/23 20:35:49;;;;;;;3.25;2.10;;;;;;;;;;10437231;28;20590;-72
2022/05/23 20:40:50;;;;;;;2.95;2.10;;;;;;;;;;10432382;28;20198;-71
2022/05/23 20:45:51;;;;;;;2.50;2.28;;;;;;;;;;10464236;28;20210;-71
2022/05/23 20:50:52;;;;;;;5.38;1.95;;;;;;;;;;10464958;28;20214;-72
2022/05/23 20:55:55;;;;;;;2.78;2.20;;;;;;;;;;10457510;28;20233;-72
2022/05/23 21:00:56;;;;;;;2.40;2.10;;;;;;;;;;10468932;28;20300;-73
2022/05/23 21:05:58;;;;;;;2.03;1.92;;;;;;;;;;10452963;28;20246;-71
2022/05/23 21:10:59;;;;;;;3.15;2.00;;;;;;;;;;10467731;28;20235;-72
2022/05/23 21:16:00;;;;;;;2.80;2.15;;;;;;;;;;10454268;28;20195;-71
2022/05/23 21:21:01;;;;;;;2.28;2.10;;;;;;;;;;10454767;28;20221;-73
2022/05/23 21:26:06;;;;;;;5.57;1.75;;;;;;;;;;10453260;28;20209;-71
2022/05/23 21:31:07;;;;;;;2.88;1.83;;;;;;;;;;10467278;28;20214;-72
2022/05/23 21:36:08;;;;;;;8.23;1.85;;;;;;;;;;10468840;28;20775;-73
2022/05/23 21:46:34;;;;;;;2.28;1.50;;;;;;;;;;10471572;28;20210;-72
2022/05/23 21:51:37;;;;;;;1.65;1.50;;;;;;;;;;10443687;28;20207;-72
2022/05/23 21:56:39;;;;;;;2.80;1.75;;;;;;;;;;10419452;28;20232;-72
2022/05/23 22:01:48;;;;;;;2.40;1.35;;;;;;;;;;10470161;28;20215;-72
2022/05/23 22:06:50;;;;;;;1.48;1.35;;;;;;;;;;10468043;28;20234;-72
2022/05/23 22:11:51;;;;;;;3.42;1.98;;;;;;;;;;10444954;28;20210;-71
2022/05/23 22:16:52;;;;;;;1.85;1.52;;;;;;;;;;10450428;28;20202;-72
2022/05/23 22:21:58;;;;;;;2.28;1.45;;;;;;;;;;10434013;28;20210;-73
2022/05/23 22:26:59;;;;;;;3.17;1.80;;;;;;;;;;10468787;28;20218;-73
2022/05/23 22:32:00;;;;;;;1.85;1.75;;;;;;;;;;10444435;28;20210;-72
2022/05/23 22:37:01;;;;;;;3.42;1.98;;;;;;;;;;10440289;28;20789;-71
2022/05/23 22:42:03;;;;;;;2.78;1.90;;;;;;;;;;10448466;28;20878;-70
2022/05/23 22:47:05;;;;;;;3.25;1.98;;;;;;;;;;10463807;28;20210;-72
2022/05/23 22:52:06;;;;;;;6.90;2.00;;;;;;;;;;10469133;28;20206;-72
2022/05/23 22:57:09;;;;;;;2.38;1.98;;;;;;;;;;10466786;28;20194;-73
2022/05/23 23:02:10;;;;;;;2.08;1.92;;;;;;;;;;10447378;28;20233;-73
2022/05/23 23:07:12;;;;;;;4.70;2.05;;;;;;;;;;10446358;28;20306;-71
2022/05/23 23:12:15;;;;;;;5.75;2.17;;;;;;;;;;10461268;28;20222;-72
2022/05/23 23:17:19;;;;;;;6.32;2.67;;;;;;;;;;10464040;28;20214;-74
2022/05/23 23:22:20;;;;;;;5.45;2.47;;;;;;;;;;10461592;28;20796;-73
2022/05/23 23:27:22;;;;;;;2.60;2.50;;;;;;;;;;10427116;28;20267;-73
2022/05/23 23:32:23;;;;;;;3.30;3.10;;;;;;;;;;10427708;28;20934;-72
2022/05/23 23:42:46;;;;;;;4.80;4.45;;;;;;;;;;10461593;28;20214;-74
2022/05/23 23:47:48;;;;;;;5.18;4.57;;;;;;;;;;10463394;28;21015;-74
2022/05/23 23:52:49;;;;;;;4.68;4.38;;;;;;;;;;10434239;28;20213;-73
2022/05/23 23:57:50;;;;;;;7.45;5.07;;;;;;;;;;10460661;28;20252;-74
